Time;durP1;ratioP1;P1;durP2;ratioP2;P2;SDS_P1;SDS_P2;PMS_P1;PMS_P2;Temp;Humidity;BMP_temperature;BMP_pressure;BME280_temperature;BME280_humidity;BME280_pressure;Samples;Min_cycle;Max_cycle;Signal;HPM_P1;HPM_P2
2021/05/07 00:01:46;;;;;;;6.82;3.22;;;13.50;56.90;;;;;;5044052;28;20052;-56
2021/05/07 00:04:16;;;;;;;6.68;3.33;;;13.50;57.20;;;;;;5039060;28;20090;-55
2021/05/07 00:06:42;;;;;;;7.65;3.15;;;13.60;56.50;;;;;;5037023;28;20108;-49
2021/05/07 00:09:08;;;;;;;5.43;3.17;;;13.70;56.30;;;;;;5045682;28;20112;-54
2021/05/07 00:11:34;;;;;;;5.03;2.85;;;13.70;56.10;;;;;;5038751;28;20026;-54
2021/05/07 00:14:02;;;;;;;6.32;3.08;;;13.70;56.00;;;;;;5045431;28;20036;-56
2021/05/07 00:16:28;;;;;;;5.70;2.92;;;13.80;56.40;;;;;;5043276;28;20025;-54
2021/05/07 00:18:54;;;;;;;5.38;3.42;;;13.80;55.60;;;;;;5043222;28;20037;-54
2021/05/07 00:21:20;;;;;;;12.15;3.08;;;13.70;56.00;;;;;;5039979;28;20049;-55
2021/05/07 00:23:46;;;;;;;4.68;2.83;;;13.60;56.20;;;;;;5031342;28;20037;-53
2021/05/07 00:26:12;;;;;;;6.68;3.05;;;13.60;56.30;;;;;;5045690;28;20024;-49
2021/05/07 00:28:37;;;;;;;5.03;2.92;;;13.50;56.70;;;;;;5039070;28;20025;-50
2021/05/07 00:31:04;;;;;;;5.30;3.08;;;13.30;57.10;;;;;;5043738;28;20026;-51
2021/05/07 00:33:30;;;;;;;6.80;3.15;;;13.30;57.60;;;;;;5041516;28;20492;-55
2021/05/07 00:35:55;;;;;;;4.70;2.97;;;13.20;57.80;;;;;;5068353;28;20025;-54
2021/05/07 00:38:21;;;;;;;4.65;2.90;;;13.10;57.90;;;;;;5046682;28;20103;-55
2021/05/07 00:40:47;;;;;;;4.20;3.05;;;13.30;57.60;;;;;;5055245;28;20029;-53
2021/05/07 00:43:13;;;;;;;5.55;3.00;;;13.30;57.30;;;;;;5044577;28;20523;-55
2021/05/07 00:45:39;;;;;;;5.38;2.63;;;13.30;57.50;;;;;;5047150;28;20025;-55
2021/05/07 00:48:11;;;;;;;5.38;3.03;;;13.30;57.50;;;;;;5046067;28;20030;-54
2021/05/07 00:50:38;;;;;;;5.10;2.90;;;13.40;57.20;;;;;;5052315;28;20053;-56
2021/05/07 00:53:05;;;;;;;5.05;2.63;;;13.40;57.20;;;;;;5044941;28;20029;-56
2021/05/07 00:55:32;;;;;;;5.45;3.30;;;13.30;57.40;;;;;;5049240;28;20029;-53
2021/05/07 00:57:58;;;;;;;6.22;3.10;;;13.30;57.50;;;;;;5051815;28;20033;-54
2021/05/07 01:00:25;;;;;;;5.85;2.65;;;13.30;57.70;;;;;;5046987;28;20128;-56
2021/05/07 01:02:51;;;;;;;5.97;2.55;;;13.20;57.70;;;;;;5039234;28;20021;-56
2021/05/07 01:05:18;;;;;;;4.70;2.50;;;13.20;57.70;;;;;;5049343;28;20470;-53
2021/05/07 01:07:44;;;;;;;5.72;2.60;;;13.30;57.50;;;;;;5040753;28;20079;-52
2021/05/07 01:10:12;;;;;;;6.50;2.53;;;13.30;57.30;;;;;;5042331;28;20462;-57
2021/05/07 01:12:39;;;;;;;3.92;2.40;;;13.40;57.10;;;;;;5048656;28;20043;-56
2021/05/07 01:15:09;;;;;;;3.53;2.30;;;13.40;56.90;;;;;;5049236;28;20042;-56
2021/05/07 01:17:39;;;;;;;5.40;2.72;;;13.50;56.70;;;;;;5040015;28;20477;-54
2021/05/07 01:20:15;;;;;;;4.32;2.45;;;13.60;56.50;;;;;;5054959;28;20044;-53
2021/05/07 01:22:55;;;;;;;3.95;2.28;;;13.60;56.50;;;;;;5048319;28;20033;-53
2021/05/07 01:25:24;;;;;;;4.03;2.42;;;13.50;56.60;;;;;;5043925;28;20075;-56
2021/05/07 01:27:53;;;;;;;5.07;2.47;;;13.40;56.70;;;;;;5040796;28;20048;-54
2021/05/07 01:30:25;;;;;;;4.55;2.83;;;13.40;56.90;;;;;;5034418;28;20059;-52
2021/05/07 01:32:51;;;;;;;6.47;3.00;;;13.40;57.10;;;;;;5046067;28;20029;-56
2021/05/07 01:35:22;;;;;;;5.60;3.08;;;13.40;57.10;;;;;;5048882;28;20116;-59
2021/05/07 01:37:50;;;;;;;6.43;2.90;;;13.40;57.10;;;;;;5047633;28;20017;-51
2021/05/07 01:40:30;;;;;;;5.47;2.88;;;13.40;57.10;;;;;;5045839;28;20051;-55
2021/05/07 01:42:56;;;;;;;6.90;3.00;;;13.40;57.10;;;;;;5045112;28;20466;-57
2021/05/07 01:45:28;;;;;;;7.38;2.50;;;13.50;56.90;;;;;;5050287;28;20108;-56
2021/05/07 01:47:54;;;;;;;7.38;2.75;;;13.60;56.50;;;;;;5044781;28;20112;-55
2021/05/07 01:50:22;;;;;;;5.88;2.85;;;13.70;56.30;;;;;;5040237;28;20107;-56
2021/05/07 01:52:49;;;;;;;5.20;2.85;;;13.80;56.00;;;;;;5050982;28;20520;-55
2021/05/07 01:55:17;;;;;;;5.40;3.05;;;13.80;56.00;;;;;;5050910;28;20028;-52
2021/05/07 01:57:43;;;;;;;5.35;2.58;;;13.90;55.80;;;;;;5045585;28;20033;-52
2021/05/07 02:00:11;;;;;;;4.15;2.40;;;13.90;56.10;;;;;;5042326;28;20060;-62
2021/05/07 02:02:38;;;;;;;4.68;2.20;;;13.90;55.80;;;;;;5039606;28;20032;-51
2021/05/07 02:05:07;;;;;;;4.57;2.08;;;14.00;56.20;;;;;;5049198;28;20039;-49
2021/05/07 02:07:33;;;;;;;4.07;2.00;;;13.90;56.30;;;;;;5048698;28;20158;-52
2021/05/07 02:09:59;;;;;;;3.10;1.88;;;14.00;56.20;;;;;;5050127;28;20120;-55
2021/05/07 02:12:25;;;;;;;5.07;1.90;;;14.00;56.00;;;;;;5048514;28;20056;-54
2021/05/07 02:14:52;;;;;;;2.92;1.75;;;14.10;56.20;;;;;;5049934;28;20134;-56
2021/05/07 02:17:18;;;;;;;4.63;1.80;;;14.10;56.50;;;;;;5039586;28;20160;-55
2021/05/07 02:19:44;;;;;;;4.05;1.60;;;14.10;56.60;;;;;;5047234;28;20115;-53
2021/05/07 02:22:10;;;;;;;3.53;1.52;;;14.20;57.10;;;;;;5050160;28;20462;-61
2021/05/07 02:24:36;;;;;;;5.40;1.80;;;14.30;56.90;;;;;;5043351;28;20033;-54
2021/05/07 02:27:03;;;;;;;2.92;1.20;;;14.30;57.30;;;;;;5050347;28;20377;-55
2021/05/07 02:29:29;;;;;;;3.42;1.20;;;14.40;57.00;;;;;;5050072;28;20037;-53
2021/05/07 02:31:55;;;;;;;2.35;1.15;;;14.40;57.20;;;;;;5040420;28;20029;-53
2021/05/07 02:34:20;;;;;;;2.60;1.10;;;14.40;57.00;;;;;;5047916;28;20075;-49
2021/05/07 02:36:46;;;;;;;3.03;1.17;;;14.50;56.80;;;;;;5049093;28;20035;-55
2021/05/07 02:39:15;;;;;;;2.15;1.13;;;14.50;56.90;;;;;;5037566;28;20029;-54
2021/05/07 02:41:43;;;;;;;2.40;0.90;;;14.60;56.80;;;;;;5039921;28;20041;-53
2021/05/07 02:44:08;;;;;;;3.60;1.23;;;14.60;56.70;;;;;;5046660;28;20063;-55
2021/05/07 02:46:35;;;;;;;1.42;0.80;;;14.70;56.50;;;;;;5046657;28;20056;-55
2021/05/07 02:49:03;;;;;;;1.48;0.80;;;14.70;56.30;;;;;;5047639;28;20071;-54
2021/05/07 02:51:30;;;;;;;1.95;1.08;;;14.70;56.40;;;;;;5042700;28;20539;-53
2021/05/07 02:53:56;;;;;;;3.13;1.10;;;14.70;56.50;;;;;;5035827;28;20029;-53
2021/05/07 02:56:22;;;;;;;2.47;0.95;;;14.70;56.60;;;;;;5042527;28;20057;-55
2021/05/07 02:58:47;;;;;;;1.83;0.90;;;14.70;56.60;;;;;;5050461;28;20079;-52
2021/05/07 03:01:13;;;;;;;1.65;0.80;;;14.80;56.30;;;;;;5049061;28;20049;-59
2021/05/07 03:03:39;;;;;;;2.28;0.90;;;14.90;56.00;;;;;;5041849;28;20143;-58
2021/05/07 03:06:05;;;;;;;2.35;1.00;;;14.90;55.90;;;;;;5047745;28;20044;-56
2021/05/07 03:08:30;;;;;;;1.70;0.80;;;15.00;55.70;;;;;;5044062;28;20025;-54
2021/05/07 03:10:56;;;;;;;2.10;0.80;;;15.00;55.80;;;;;;5046594;28;20030;-56
2021/05/07 03:13:22;;;;;;;1.27;0.80;;;15.00;55.60;;;;;;5041046;28;20036;-52
2021/05/07 03:15:47;;;;;;;2.63;0.80;;;15.10;55.40;;;;;;5041587;28;20470;-53
2021/05/07 03:18:20;;;;;;;2.35;0.80;;;15.10;55.20;;;;;;5035217;28;20036;-61
2021/05/07 03:20:48;;;;;;;3.22;0.90;;;15.10;55.10;;;;;;5048023;28;20556;-52
2021/05/07 03:23:14;;;;;;;2.00;0.90;;;15.10;54.90;;;;;;5045382;28;20095;-60
2021/05/07 03:25:40;;;;;;;3.22;0.85;;;15.20;54.70;;;;;;5032417;28;20528;-54
2021/05/07 03:28:06;;;;;;;1.88;1.17;;;15.10;54.80;;;;;;5035984;28;20034;-52
2021/05/07 03:30:34;;;;;;;2.67;0.90;;;15.10;54.80;;;;;;5042001;28;20063;-50
2021/05/07 03:33:00;;;;;;;1.30;0.90;;;15.20;54.60;;;;;;5045340;28;20033;-58
2021/05/07 03:35:26;;;;;;;2.17;0.90;;;15.20;54.50;;;;;;5046152;28;20033;-57
2021/05/07 03:37:52;;;;;;;4.47;1.00;;;15.10;54.60;;;;;;5044144;28;20024;-55
2021/05/07 03:40:18;;;;;;;2.33;1.00;;;15.10;54.60;;;;;;5045383;28;20041;-52
2021/05/07 03:42:46;;;;;;;2.75;1.00;;;15.20;54.40;;;;;;5042514;28;20031;-55
2021/05/07 03:45:13;;;;;;;1.88;1.00;;;15.20;54.30;;;;;;5038862;28;20029;-55
2021/05/07 03:47:39;;;;;;;1.80;1.00;;;15.20;54.20;;;;;;5042843;28;20075;-53
2021/05/07 03:50:05;;;;;;;3.33;0.90;;;15.20;54.00;;;;;;5050432;28;20032;-51
2021/05/07 03:52:31;;;;;;;3.78;0.90;;;15.30;53.70;;;;;;5044275;28;20104;-53
2021/05/07 03:54:56;;;;;;;3.20;1.00;;;15.30;53.70;;;;;;5045223;28;20025;-53
2021/05/07 03:57:24;;;;;;;1.08;0.70;;;15.30;53.40;;;;;;5039369;28;20037;-57
2021/05/07 03:59:50;;;;;;;3.47;0.80;;;15.20;53.60;;;;;;5049250;28;20044;-56
2021/05/07 04:02:16;;;;;;;3.42;0.82;;;15.20;53.60;;;;;;5048305;28;20104;-57
2021/05/07 04:04:44;;;;;;;2.28;0.80;;;15.20;53.40;;;;;;5044057;28;20040;-55
2021/05/07 04:07:10;;;;;;;2.22;0.90;;;15.30;53.40;;;;;;5042346;28;20032;-53
2021/05/07 04:09:40;;;;;;;3.22;1.00;;;15.40;53.20;;;;;;5048256;28;20033;-53
2021/05/07 04:12:17;;;;;;;2.83;0.98;;;15.30;53.10;;;;;;5039333;28;20053;-55
2021/05/07 04:14:43;;;;;;;2.95;1.10;;;15.30;53.30;;;;;;5047900;28;20045;-54
2021/05/07 04:17:09;;;;;;;2.35;0.70;;;15.30;53.40;;;;;;5047048;28;20048;-51
2021/05/07 04:19:35;;;;;;;3.10;0.90;;;15.30;53.30;;;;;;5043642;28;20113;-49
2021/05/07 04:22:01;;;;;;;2.60;1.02;;;15.40;53.30;;;;;;5043446;28;20432;-52
2021/05/07 04:24:26;;;;;;;3.55;1.25;;;15.30;53.70;;;;;;5043558;28;20090;-55
2021/05/07 04:26:54;;;;;;;3.45;1.10;;;15.30;53.80;;;;;;5041080;28;20390;-52
2021/05/07 04:29:25;;;;;;;4.95;1.67;;;15.30;53.80;;;;;;5043131;28;20041;-57
2021/05/07 04:31:52;;;;;;;3.33;0.98;;;15.30;53.90;;;;;;5049843;28;20029;-53
2021/05/07 04:34:18;;;;;;;5.10;1.00;;;15.40;53.70;;;;;;5049209;28;20032;-52
2021/05/07 04:36:44;;;;;;;3.70;1.23;;;15.40;53.80;;;;;;5045740;28;20025;-56
2021/05/07 04:39:10;;;;;;;3.50;1.13;;;15.30;54.00;;;;;;5043473;28;20044;-57
2021/05/07 04:41:36;;;;;;;4.45;1.38;;;15.30;54.10;;;;;;5042796;28;20037;-51
2021/05/07 04:44:02;;;;;;;3.75;1.20;;;15.30;54.10;;;;;;5046696;28;20021;-52
2021/05/07 04:46:28;;;;;;;8.65;1.30;;;15.30;54.00;;;;;;5044622;28;20033;-57
2021/05/07 04:48:54;;;;;;;2.83;1.30;;;15.30;53.90;;;;;;5047247;28;20055;-52
2021/05/07 04:51:20;;;;;;;5.50;1.40;;;15.40;53.90;;;;;;5038819;28;20060;-62
2021/05/07 04:53:46;;;;;;;2.50;1.02;;;15.40;53.70;;;;;;5049067;28;20049;-58
2021/05/07 04:56:12;;;;;;;3.85;1.30;;;15.40;53.60;;;;;;5051193;28;20359;-54
2021/05/07 04:58:37;;;;;;;4.18;1.30;;;15.50;53.50;;;;;;5044604;28;20040;-55
2021/05/07 05:01:03;;;;;;;3.67;1.20;;;15.50;53.40;;;;;;5050646;28;20055;-55
2021/05/07 05:03:29;;;;;;;4.07;1.52;;;15.40;53.40;;;;;;5042202;28;20116;-55
2021/05/07 05:05:54;;;;;;;2.55;1.10;;;15.40;53.60;;;;;;5037904;28;20086;-54
2021/05/07 05:08:22;;;;;;;2.72;1.20;;;15.50;53.60;;;;;;5048513;28;20108;-56
2021/05/07 05:10:48;;;;;;;3.67;1.20;;;15.50;53.50;;;;;;5046243;28;20734;-51
2021/05/07 05:13:14;;;;;;;3.53;1.02;;;15.60;53.40;;;;;;5031231;28;20107;-57
2021/05/07 05:15:40;;;;;;;2.53;1.02;;;15.50;53.40;;;;;;5040632;28;20041;-54
2021/05/07 05:18:06;;;;;;;3.28;1.30;;;15.70;53.20;;;;;;5049878;28;20393;-53
2021/05/07 05:20:31;;;;;;;6.57;1.30;;;15.80;52.90;;;;;;5042687;28;20029;-53
2021/05/07 05:22:57;;;;;;;4.90;1.38;;;15.80;52.80;;;;;;5052540;28;20399;-55
2021/05/07 05:25:23;;;;;;;5.20;1.63;;;15.90;52.40;;;;;;5043126;28;20032;-60
2021/05/07 05:27:49;;;;;;;3.95;1.30;;;16.00;52.20;;;;;;5046244;28;20130;-53
2021/05/07 05:30:15;;;;;;;2.75;1.15;;;16.10;51.60;;;;;;5044989;28;20561;-57
2021/05/07 05:32:41;;;;;;;2.97;0.90;;;16.10;51.30;;;;;;5042248;28;20115;-54
2021/05/07 05:35:07;;;;;;;3.40;0.93;;;16.10;51.30;;;;;;5049080;28;20120;-54
2021/05/07 05:37:32;;;;;;;5.93;1.23;;;16.10;51.30;;;;;;5048028;28;20029;-50
2021/05/07 05:39:58;;;;;;;2.22;0.98;;;16.00;51.50;;;;;;5051580;28;20044;-55
2021/05/07 05:42:24;;;;;;;4.38;1.10;;;16.00;51.50;;;;;;5048291;28;20044;-58
2021/05/07 05:44:50;;;;;;;6.03;1.48;;;16.10;51.20;;;;;;5048221;28;20380;-53
2021/05/07 05:47:16;;;;;;;6.88;1.40;;;16.20;51.10;;;;;;5045432;28;20391;-55
2021/05/07 05:49:41;;;;;;;7.53;1.67;;;16.20;50.70;;;;;;5051163;28;20067;-55
2021/05/07 05:52:07;;;;;;;5.95;1.75;;;16.20;50.80;;;;;;5048056;28;20124;-56
2021/05/07 05:54:33;;;;;;;6.07;1.33;;;16.20;50.60;;;;;;5041498;28;20056;-60
2021/05/07 05:56:58;;;;;;;3.15;1.20;;;16.10;50.80;;;;;;5047221;28;20025;-53
2021/05/07 05:59:24;;;;;;;3.17;1.35;;;16.00;51.10;;;;;;5051307;28;20056;-56
2021/05/07 06:01:51;;;;;;;4.00;1.27;;;16.00;51.10;;;;;;5050184;28;20032;-55
2021/05/07 06:04:16;;;;;;;4.97;1.48;;;16.00;51.10;;;;;;5040400;28;20023;-56
2021/05/07 06:06:42;;;;;;;5.80;1.45;;;16.00;51.40;;;;;;5047791;28;20111;-57
2021/05/07 06:09:08;;;;;;;4.70;1.20;;;16.10;51.30;;;;;;5047799;28;20033;-56
2021/05/07 06:11:34;;;;;;;4.95;1.17;;;16.10;50.90;;;;;;5049004;28;20025;-54
2021/05/07 06:14:00;;;;;;;3.08;0.90;;;16.10;51.40;;;;;;5043495;28;20393;-55
2021/05/07 06:16:26;;;;;;;2.20;1.00;;;16.10;51.10;;;;;;5051192;28;20086;-60
2021/05/07 06:18:52;;;;;;;4.82;1.50;;;16.10;51.10;;;;;;5042898;28;20065;-52
2021/05/07 06:21:18;;;;;;;4.68;1.25;;;16.20;50.90;;;;;;5050112;28;20067;-57
2021/05/07 06:23:43;;;;;;;3.85;1.27;;;16.20;50.80;;;;;;5050680;28;20051;-56
2021/05/07 06:26:09;;;;;;;4.85;1.30;;;16.20;50.70;;;;;;5047136;28;20063;-55
2021/05/07 06:28:35;;;;;;;4.90;1.25;;;16.20;50.60;;;;;;5044692;28;20032;-56
2021/05/07 06:31:00;;;;;;;6.72;1.40;;;16.20;50.80;;;;;;5043831;28;20026;-58
2021/05/07 06:33:27;;;;;;;5.68;1.08;;;16.10;51.10;;;;;;5042992;28;20032;-63
2021/05/07 06:35:53;;;;;;;3.67;1.10;;;16.20;51.60;;;;;;5040774;28;20025;-54
2021/05/07 06:38:19;;;;;;;4.53;1.40;;;16.20;51.20;;;;;;5042834;28;20033;-52
2021/05/07 06:40:45;;;;;;;2.65;1.08;;;16.30;50.30;;;;;;5046531;28;20405;-54
2021/05/07 06:43:11;;;;;;;4.82;1.65;;;16.30;50.20;;;;;;5046385;28;20419;-55
2021/05/07 06:45:37;;;;;;;4.50;0.98;;;16.40;50.20;;;;;;5042730;28;20075;-55
2021/05/07 06:48:05;;;;;;;5.38;1.65;;;16.40;50.00;;;;;;5048776;28;20029;-58
2021/05/07 06:50:31;;;;;;;2.05;1.10;;;16.50;50.00;;;;;;5044654;28;20124;-55
2021/05/07 06:52:57;;;;;;;4.53;1.15;;;16.50;49.70;;;;;;5049870;28;20031;-59
2021/05/07 06:55:23;;;;;;;3.92;1.10;;;16.50;49.70;;;;;;5048052;28;20033;-54
2021/05/07 06:57:50;;;;;;;3.97;1.10;;;16.50;49.60;;;;;;5048146;28;20469;-53
2021/05/07 07:00:17;;;;;;;3.88;1.25;;;16.50;49.70;;;;;;5044346;28;20041;-54
2021/05/07 07:02:42;;;;;;;3.80;1.20;;;16.60;49.30;;;;;;5023262;28;20461;-54
2021/05/07 07:05:08;;;;;;;8.15;1.40;;;16.60;49.20;;;;;;5040161;28;20029;-58
2021/05/07 07:07:36;;;;;;;4.40;1.00;;;16.70;49.20;;;;;;5042765;28;20556;-54
2021/05/07 07:10:02;;;;;;;5.55;1.20;;;16.80;49.10;;;;;;5038695;28;20021;-55
2021/05/07 07:12:28;;;;;;;2.97;0.95;;;17.00;48.50;;;;;;5041916;28;20033;-58
2021/05/07 07:14:55;;;;;;;2.60;1.00;;;16.90;48.40;;;;;;5040988;28;20094;-60
2021/05/07 07:17:20;;;;;;;3.28;1.30;;;16.70;49.00;;;;;;5036930;28;20068;-55
2021/05/07 07:19:46;;;;;;;5.78;1.35;;;16.60;49.20;;;;;;5037127;28;20133;-59
2021/05/07 07:22:12;;;;;;;5.47;1.00;;;16.50;49.60;;;;;;5039487;28;20037;-59
2021/05/07 07:24:39;;;;;;;3.22;1.20;;;16.60;49.50;;;;;;5039094;28;20028;-59
2021/05/07 07:27:05;;;;;;;5.30;1.10;;;16.60;49.30;;;;;;5037734;28;20035;-59
2021/05/07 07:29:31;;;;;;;2.90;1.10;;;16.70;49.10;;;;;;5041141;28;20380;-62
2021/05/07 07:31:57;;;;;;;4.28;1.50;;;16.70;48.90;;;;;;5037160;28;20517;-58
2021/05/07 07:34:24;;;;;;;4.15;1.10;;;16.70;48.80;;;;;;5036582;28;20044;-58
2021/05/07 07:36:50;;;;;;;6.20;1.88;;;16.60;48.90;;;;;;5039537;28;20078;-57
2021/05/07 07:39:19;;;;;;;3.67;1.30;;;16.60;49.20;;;;;;5040212;28;20049;-56
2021/05/07 07:41:50;;;;;;;2.58;1.20;;;16.60;49.30;;;;;;5035365;28;20453;-60
2021/05/07 07:44:17;;;;;;;2.47;1.23;;;16.80;48.90;;;;;;5034100;28;20033;-57
2021/05/07 07:46:44;;;;;;;4.95;1.63;;;16.90;48.50;;;;;;5035825;28;20575;-56
2021/05/07 07:49:09;;;;;;;2.45;1.17;;;17.00;48.30;;;;;;5041089;28;20211;-56
2021/05/07 07:51:35;;;;;;;3.50;1.10;;;17.10;47.80;;;;;;5037312;28;20479;-61
2021/05/07 07:54:07;;;;;;;1.83;1.00;;;17.30;47.60;;;;;;5037700;28;20037;-56
2021/05/07 07:56:34;;;;;;;3.53;1.30;;;17.40;47.60;;;;;;5037491;28;20791;-62
2021/05/07 07:59:00;;;;;;;3.47;1.27;;;17.40;47.30;;;;;;5037548;28;20048;-59
2021/05/07 08:01:25;;;;;;;3.17;1.30;;;17.40;47.30;;;;;;5039931;28;20048;-55
2021/05/07 08:03:52;;;;;;;3.47;1.27;;;17.30;47.40;;;;;;5028332;28;20119;-62
2021/05/07 08:06:19;;;;;;;5.82;1.23;;;17.30;47.40;;;;;;5022181;28;20086;-61
2021/05/07 08:08:45;;;;;;;4.30;1.45;;;17.40;47.40;;;;;;5033970;28;20033;-65
2021/05/07 08:11:11;;;;;;;2.53;1.17;;;17.80;46.80;;;;;;5041007;28;20040;-59
2021/05/07 08:13:38;;;;;;;6.30;1.50;;;17.70;46.00;;;;;;5038186;28;20033;-61
2021/05/07 08:16:05;;;;;;;4.78;1.40;;;17.70;46.20;;;;;;5036467;28;20024;-62
2021/05/07 08:18:49;;;;;;;2.35;1.15;;;17.70;46.10;;;;;;5044175;28;20494;-61
2021/05/07 08:21:15;;;;;;;;;;;17.70;46.10;;;;;;5038679;28;20029;-57
2021/05/07 08:23:40;;;;;;;4.30;1.40;;;17.80;46.20;;;;;;5043730;28;19979;-59
2021/05/07 08:26:06;;;;;;;5.15;1.48;;;18.20;46.00;;;;;;5035736;28;20397;-66
2021/05/07 08:28:32;;;;;;;7.57;1.35;;;18.50;44.80;;;;;;5041867;28;20021;-65
2021/05/07 08:30:58;;;;;;;3.90;1.10;;;18.60;44.50;;;;;;5038818;28;20083;-65
2021/05/07 08:33:24;;;;;;;6.35;1.33;;;18.30;44.50;;;;;;5039064;28;20033;-66
2021/05/07 08:35:50;;;;;;;6.18;1.10;;;18.20;45.10;;;;;;5046294;28;20120;-60
2021/05/07 08:38:16;;;;;;;2.33;1.00;;;18.00;45.00;;;;;;5031556;28;20315;-58
2021/05/07 08:40:42;;;;;;;3.55;1.17;;;17.70;45.90;;;;;;5037613;28;20036;-61
2021/05/07 08:43:10;;;;;;;6.70;1.38;;;17.70;46.30;;;;;;5037876;28;20350;-57
2021/05/07 08:45:36;;;;;;;4.75;1.13;;;17.70;46.40;;;;;;5014727;28;20033;-64
2021/05/07 08:48:04;;;;;;;8.27;1.48;;;18.00;46.10;;;;;;5035362;28;20028;-58
2021/05/07 08:50:30;;;;;;;7.35;1.40;;;18.50;45.70;;;;;;5038157;28;20029;-65
2021/05/07 08:52:56;;;;;;;4.72;1.60;;;19.40;44.20;;;;;;5028280;28;20013;-61
2021/05/07 08:55:22;;;;;;;6.18;2.53;;;19.70;42.40;;;;;;5037823;28;20091;-55
2021/05/07 08:57:48;;;;;;;3.15;1.40;;;20.80;41.70;;;;;;5037612;28;20389;-55
2021/05/07 09:00:14;;;;;;;4.63;1.40;;;23.80;36.70;;;;;;5045926;28;20485;-57
2021/05/07 09:02:40;;;;;;;5.15;1.10;;;24.10;34.40;;;;;;5047473;28;20036;-61
2021/05/07 09:05:06;;;;;;;3.65;1.65;;;23.20;35.20;;;;;;5036977;28;20098;-58
2021/05/07 09:07:33;;;;;;;3.97;1.40;;;23.70;35.10;;;;;;5041384;28;20131;-59
2021/05/07 09:10:03;;;;;;;3.97;1.20;;;24.60;33.20;;;;;;5039916;28;20032;-65
2021/05/07 09:12:40;;;;;;;2.72;1.25;;;24.20;33.40;;;;;;5054889;28;20028;-61
2021/05/07 09:15:09;;;;;;;4.10;1.02;;;23.60;34.00;;;;;;5044873;28;20044;-60
2021/05/07 09:17:37;;;;;;;3.13;0.93;;;22.80;34.60;;;;;;5037605;28;20036;-62
2021/05/07 09:20:09;;;;;;;6.95;1.20;;;21.90;35.80;;;;;;5033977;28;20032;-65
2021/05/07 09:22:36;;;;;;;4.70;1.20;;;21.40;37.40;;;;;;5038362;28;20103;-68
2021/05/07 09:25:13;;;;;;;4.68;1.48;;;21.70;37.60;;;;;;5046757;28;20033;-64
2021/05/07 09:27:40;;;;;;;4.43;1.33;;;22.10;36.90;;;;;;5039830;28;20029;-64
2021/05/07 09:30:23;;;;;;;3.70;1.00;;;21.70;36.70;;;;;;5038557;28;20185;-61
2021/05/07 09:32:51;;;;;;;4.15;1.38;;;20.80;37.80;;;;;;5032209;28;20053;-66
2021/05/07 09:35:18;;;;;;;4.40;1.15;;;20.40;38.60;;;;;;5038924;28;20039;-58
2021/05/07 09:37:44;;;;;;;6.85;1.33;;;20.10;39.20;;;;;;5046221;28;20060;-58
2021/05/07 09:40:13;;;;;;;3.10;1.27;;;20.10;39.40;;;;;;5041098;28;20029;-65
2021/05/07 09:42:40;;;;;;;5.55;1.38;;;20.30;39.40;;;;;;5041690;28;20041;-62
2021/05/07 09:45:17;;;;;;;6.10;1.30;;;20.90;38.60;;;;;;5045770;28;20040;-63
2021/05/07 09:47:42;;;;;;;4.97;1.20;;;21.30;37.50;;;;;;5033504;28;20052;-67
2021/05/07 09:50:10;;;;;;;6.35;1.40;;;21.10;37.60;;;;;;5039749;28;20037;-58
2021/05/07 09:52:36;;;;;;;4.10;1.35;;;20.70;38.20;;;;;;5038068;28;20460;-69
2021/05/07 09:55:02;;;;;;;3.97;1.33;;;20.20;38.70;;;;;;5036254;28;20036;-62
2021/05/07 09:57:29;;;;;;;7.93;1.40;;;20.10;39.20;;;;;;5041751;28;20601;-65
2021/05/07 09:59:56;;;;;;;2.67;0.95;;;19.90;39.30;;;;;;5029656;28;20556;-64
2021/05/07 10:02:22;;;;;;;3.53;1.25;;;19.80;39.70;;;;;;5037672;28;20032;-59
2021/05/07 10:04:48;;;;;;;5.32;1.23;;;19.60;40.00;;;;;;5039470;28;20033;-63
2021/05/07 10:07:14;;;;;;;2.45;1.15;;;19.40;40.60;;;;;;5046550;28;20091;-58
2021/05/07 10:09:40;;;;;;;3.65;1.23;;;19.50;40.90;;;;;;5039191;28;20372;-63
2021/05/07 10:12:25;;;;;;;6.55;1.30;;;19.40;41.20;;;;;;5046553;28;20036;-59
2021/05/07 10:14:51;;;;;;;2.35;1.08;;;19.50;41.30;;;;;;5038294;28;20036;-67
2021/05/07 10:17:17;;;;;;;6.47;1.55;;;19.80;40.80;;;;;;5034579;28;20386;-61
2021/05/07 10:19:44;;;;;;;4.22;1.38;;;20.10;40.20;;;;;;5039027;28;20068;-62
2021/05/07 10:22:11;;;;;;;2.25;1.10;;;19.90;40.40;;;;;;5035560;28;20033;-60
2021/05/07 10:24:39;;;;;;;3.72;1.20;;;19.60;41.30;;;;;;5037747;28;20115;-70
2021/05/07 10:27:19;;;;;;;5.53;1.50;;;19.30;41.90;;;;;;5045112;28;20032;-65
2021/05/07 10:30:05;;;;;;;4.00;1.33;;;19.40;42.10;;;;;;5029866;28;20716;-55
2021/05/07 10:32:37;;;;;;;2.25;1.15;;;19.20;42.70;;;;;;5040878;28;20033;-55
2021/05/07 10:35:04;;;;;;;5.03;2.10;;;19.20;43.00;;;;;;5040355;28;20029;-58
2021/05/07 10:37:42;;;;;;;6.25;1.92;;;19.50;42.70;;;;;;5048053;28;20093;-65
2021/05/07 10:40:12;;;;;;;2.72;1.30;;;19.90;41.60;;;;;;5043124;28;20121;-58
2021/05/07 10:42:37;;;;;;;2.60;1.10;;;20.00;41.20;;;;;;5027598;28;20098;-64
2021/05/07 10:45:04;;;;;;;2.00;1.20;;;20.10;40.70;;;;;;5032228;28;20120;-65
2021/05/07 10:47:35;;;;;;;3.97;1.27;;;20.30;40.90;;;;;;5027729;28;20033;-59
2021/05/07 10:50:18;;;;;;;1.65;1.10;;;20.40;40.00;;;;;;5033511;28;20029;-67
2021/05/07 10:52:44;;;;;;;3.33;1.50;;;20.40;39.80;;;;;;5031002;28;20087;-63
2021/05/07 10:55:10;;;;;;;2.08;0.98;;;20.40;39.50;;;;;;5036941;28;20642;-64
2021/05/07 10:57:39;;;;;;;2.80;0.85;;;20.50;39.20;;;;;;5039940;28;20122;-56
2021/05/07 11:00:08;;;;;;;2.80;1.17;;;20.40;39.80;;;;;;5041677;28;20103;-62
2021/05/07 11:02:48;;;;;;;2.67;1.25;;;20.60;39.10;;;;;;5035931;28;20033;-57
2021/05/07 11:05:35;;;;;;;4.88;1.40;;;20.70;38.50;;;;;;5038615;28;20045;-64
2021/05/07 11:08:01;;;;;;;4.93;1.38;;;20.80;38.00;;;;;;5038488;28;20031;-59
2021/05/07 11:10:28;;;;;;;1.65;1.00;;;20.80;38.20;;;;;;5041131;28;20056;-61
2021/05/07 11:12:53;;;;;;;2.85;0.98;;;20.80;38.00;;;;;;5043997;28;20453;-61
2021/05/07 11:15:20;;;;;;;1.05;0.80;;;20.70;38.20;;;;;;5039260;28;20037;-61
2021/05/07 11:17:46;;;;;;;4.55;0.98;;;20.90;38.20;;;;;;5039119;28;20108;-55
2021/05/07 11:20:28;;;;;;;5.40;1.60;;;20.80;37.60;;;;;;5040497;28;20456;-55
2021/05/07 11:22:57;;;;;;;3.35;1.00;;;20.80;38.00;;;;;;5041442;28;20089;-63
2021/05/07 11:25:23;;;;;;;1.13;0.90;;;20.90;37.90;;;;;;5035798;28;20075;-63
2021/05/07 11:27:49;;;;;;;2.75;0.80;;;20.70;38.50;;;;;;5042439;28;20029;-57
2021/05/07 11:30:15;;;;;;;6.05;1.30;;;20.60;38.60;;;;;;5039645;28;20136;-61
2021/05/07 11:32:41;;;;;;;1.63;0.85;;;20.80;38.20;;;;;;5041440;28;20037;-59
2021/05/07 11:35:09;;;;;;;1.98;0.98;;;21.00;38.70;;;;;;5038569;28;20622;-63
2021/05/07 11:37:38;;;;;;;2.72;0.90;;;20.90;37.40;;;;;;5040209;28;20025;-65
2021/05/07 11:40:04;;;;;;;1.75;1.20;;;20.60;37.80;;;;;;5040035;28;20040;-64
2021/05/07 11:42:34;;;;;;;3.90;1.83;;;20.50;37.90;;;;;;5040353;28;20048;-59
2021/05/07 11:45:01;;;;;;;2.92;1.50;;;20.50;38.00;;;;;;5041025;28;20549;-59
2021/05/07 11:47:31;;;;;;;1.25;0.70;;;20.60;37.80;;;;;;5038344;28;20029;-57
2021/05/07 11:49:57;;;;;;;2.60;0.90;;;20.30;37.60;;;;;;5040507;28;20048;-63
2021/05/07 11:52:33;;;;;;;2.75;1.40;;;20.00;38.50;;;;;;5032399;28;20040;-58
2021/05/07 11:54:59;;;;;;;3.80;1.05;;;20.00;38.80;;;;;;5036900;28;20098;-64
2021/05/07 11:57:27;;;;;;;2.70;1.00;;;20.10;38.30;;;;;;5035673;28;20472;-58
2021/05/07 11:59:53;;;;;;;1.92;1.10;;;20.30;38.00;;;;;;5037069;28;20053;-65
2021/05/07 12:02:30;;;;;;;2.10;0.75;;;20.10;38.50;;;;;;5041222;28;20373;-59
2021/05/07 12:04:56;;;;;;;3.05;0.90;;;19.90;38.00;;;;;;5027573;28;20513;-65
2021/05/07 12:07:39;;;;;;;3.45;1.17;;;19.70;38.10;;;;;;5030156;28;20033;-66
2021/05/07 12:10:05;;;;;;;1.48;0.80;;;20.00;37.90;;;;;;5040492;28;20029;-64
2021/05/07 12:12:42;;;;;;;3.05;0.85;;;20.50;37.50;;;;;;5041800;28;20090;-57
2021/05/07 12:15:13;;;;;;;3.80;1.08;;;20.60;38.30;;;;;;5036999;28;20057;-68
2021/05/07 12:17:47;;;;;;;1.95;0.90;;;20.50;37.80;;;;;;5032185;28;20017;-66
2021/05/07 12:20:15;;;;;;;;;;;20.60;37.00;;;;;;5038199;28;20224;-61
2021/05/07 12:22:41;;;;;;;1.42;0.77;;;20.70;37.00;;;;;;5025971;28;20585;-64
2021/05/07 12:25:28;;;;;;;1.63;0.88;;;20.60;37.10;;;;;;5032504;28;20029;-61
2021/05/07 12:27:56;;;;;;;4.25;1.15;;;20.40;37.30;;;;;;5037581;28;20571;-60
2021/05/07 12:30:27;;;;;;;2.92;0.95;;;20.10;37.80;;;;;;5042358;28;20040;-57
2021/05/07 12:33:08;;;;;;;3.53;1.08;;;19.70;39.00;;;;;;5036486;28;20033;-62
2021/05/07 12:35:50;;;;;;;1.80;0.80;;;19.60;39.60;;;;;;5037147;28;20439;-61
2021/05/07 12:38:35;;;;;;;2.83;0.90;;;19.70;40.30;;;;;;5035556;28;20037;-64
2021/05/07 12:41:11;;;;;;;2.05;1.17;;;19.80;42.00;;;;;;5041822;28;20039;-61
2021/05/07 12:43:43;;;;;;;2.85;1.30;;;20.30;42.20;;;;;;5042461;28;20033;-63
2021/05/07 12:46:10;;;;;;;2.08;0.98;;;20.60;41.80;;;;;;5032984;28;20067;-64
2021/05/07 12:48:36;;;;;;;7.78;1.98;;;20.50;39.50;;;;;;5041614;28;20043;-68
2021/05/07 12:51:04;;;;;;;3.28;1.10;;;20.20;40.90;;;;;;5015329;28;20041;-63